Terminal Aerodrome Forecast
Issued by NWS

Current Version | Previous Version | Text Only | Print | Product List | Glossary On
Versions: 1 2 3 4 5 6 7 8 9 10 11 12 13 14 15 16 17
000
FTUS41 KLWX 282326
TAFMTN
TAF
KMTN 282326Z 2900/2924 10005KT P6SM -TSRA OVC040CB
     FM290300 11005KT 5SM -SHRA VCTS OVC060CB
     FM290600 12005KT 6SM SHRA VCTS OVC050CB
     FM290900 15005KT P6SM -SHRA BKN050
     FM291200 30006KT P6SM OVC050
     FM292300 35005KT P6SM BKN050
      AMD NOT SKED 2902/2912=

USA.gov is the U.S. government's official web portal to all federal, state and local government web resources and services.